Flight Track Log - Related Links

Times and Time Zones

All times are in EDT time to prevent confusion due to time zone crossing. See the N156DL flight status page for this flight to view local times or setup timezone preferences in your user account.

Time Position Orientation Groundspeed Altitude Reporting Facility
EDT Latitude Longitude Course Direction KTS MPH feet Rate Location/Type
Wed 11:20:22 PM 33.6667 -84.3500 53° Northeast 197 227 3,200  Level Atlanta TRACON
Wed 11:21:16 PM 33.6833 -84.2833 73° East 262 302 5,500 2,563 Climbing Atlanta TRACON
Wed 11:22:00 PM 33.7604 -83.9607 54° Northeast  Level FlightAware Approximate
Wed 11:23:00 PM 33.8392 -83.8292 54° Northeast  Level FlightAware Approximate
Wed 11:23:41 PM 33.7733 -84.0739 63° Northeast 307 353 11,700  Level Atlanta Center
Wed 11:24:00 PM 33.9247 -83.7039 53° Northeast  Level FlightAware Approximate
Wed 11:24:41 PM 33.8233 -83.9589 62° Northeast 350 403 14,300  Level Atlanta Center
Wed 11:25:00 PM 34.0057 -83.5740 53° Northeast  Level FlightAware Approximate
Wed 11:25:41 PM 33.8756 -83.8386 62° Northeast 381 438 17,200  Level Atlanta Center
Wed 11:26:41 PM 33.9317 -83.7158 61° Northeast 406 467 19,900 2,500 Climbing Atlanta Center
Wed 11:27:41 PM 34.0042 -83.5953 54° Northeast 430 495 22,200 2,350 Climbing Atlanta Center
Wed 11:28:41 PM 34.0706 -83.4922 52° Northeast 436 502 24,600 2,450 Climbing Atlanta Center
Wed 11:29:41 PM 34.1533 -83.3611 53° Northeast 436 502 27,100 2,200 Climbing Atlanta Center
Wed 11:30:41 PM 34.2278 -83.2397 53° Northeast 442 509 29,000 1,600 Climbing Atlanta Center
Wed 11:31:41 PM 34.2981 -83.1286 53° Northeast 448 516 30,300 1,250 Climbing Atlanta Center
Wed 11:32:41 PM 34.3806 -82.9992 52° Northeast 467 537 31,500 1,350 Climbing Atlanta Center
Wed 11:33:41 PM 34.4586 -82.8672 54° Northeast 478 550 33,000 1,550 Climbing Atlanta Center
Wed 11:34:41 PM 34.5408 -82.7350 53° Northeast 483 556 34,600 1,000 Climbing Atlanta Center
Wed 11:35:41 PM 34.6186 -82.6050 54° Northeast 483 556 35,000 200 Climbing Atlanta Center
Wed 11:36:41 PM 34.7025 -82.4697 53° Northeast 471 542 35,000  Level Atlanta Center
Wed 11:37:41 PM 34.7781 -82.3494 53° Northeast 454 522 35,000  Level Atlanta Center
Wed 11:38:41 PM 34.8514 -82.2264 54° Northeast 447 514 35,000  Level Atlanta Center
Wed 11:39:41 PM 34.9269 -82.1083 52° Northeast 442 509 35,000  Level Atlanta Center
Wed 11:40:41 PM 35.0000 -81.9850 54° Northeast 442 509 35,000  Level Atlanta Center
Wed 11:41:41 PM 35.0731 -81.8561 55° Northeast 457 526 35,000  Level Atlanta Center
Wed 11:42:41 PM 35.1394 -81.7275 58° Northeast 457 526 35,000  Level Atlanta Center
Wed 11:43:41 PM 35.2019 -81.6114 57° Northeast 452 520 35,000  Level Atlanta Center
Wed 11:44:41 PM 35.2700 -81.4772 58° Northeast 452 520 35,000  Level Atlanta Center
Wed 11:45:41 PM 35.3403 -81.3450 57° Northeast 457 526 35,000  Level Atlanta Center
Wed 11:46:41 PM 35.4061 -81.2103 59° Northeast 463 533 35,000  Level Atlanta Center
Wed 11:47:41 PM 35.4758 -81.0753 58° Northeast 463 533 35,000  Level Atlanta Center
Wed 11:48:41 PM 35.5458 -80.9478 56° Northeast 458 527 35,000  Level Atlanta Center
Wed 11:49:41 PM 35.6133 -80.8175 57° Northeast 458 527 35,000  Level Atlanta Center
Wed 11:50:41 PM 35.6831 -80.6894 56° Northeast 447 514 35,000  Level Atlanta Center
Wed 11:51:41 PM 35.7697 -80.5861 44° Northeast 435 501 35,000  Level Atlanta Center
Wed 11:53:38 PM 35.9419 -80.3614 47° Northeast 429 494 35,000  Level Washington Center
Wed 11:54:38 PM 36.0278 -80.2511 46° Northeast 435 501 35,000  Level Washington Center
Wed 11:55:38 PM 36.1111 -80.1428 46° Northeast 435 501 35,000  Level Washington Center
Wed 11:56:38 PM 36.1875 -80.0547 43° Northeast 428 493 35,000  Level Washington Center
Wed 11:57:38 PM 36.2731 -79.9411 47° Northeast 428 493 35,000  Level Washington Center
Wed 11:58:38 PM 36.3606 -79.8322 45° Northeast 433 498 35,000  Level Washington Center
Wed 11:59:39 PM 36.4525 -79.7083 47° Northeast 440 506 35,000  Level Washington Center
Thu 12:00:38 AM 36.5397 -79.5964 46° Northeast 445 512 35,000  Level Washington Center
Thu 12:01:38 AM 36.6183 -79.4944 46° Northeast 445 512 35,000  Level Washington Center
Thu 12:02:38 AM 36.7053 -79.3822 46° Northeast 445 512 35,000  Level Washington Center
Thu 12:03:38 AM 36.7925 -79.2672 47° Northeast 445 512 35,000  Level Washington Center
Thu 12:04:38 AM 36.8881 -79.1419 46° Northeast 445 512 35,000  Level Washington Center
Thu 12:05:38 AM 36.9767 -79.0314 45° Northeast 445 512 35,000  Level Washington Center
Thu 12:06:39 AM 37.0633 -78.9156 47° Northeast 445 512 35,000  Level Washington Center
Thu 12:07:38 AM 37.1414 -78.8097 47° Northeast 445 512 35,000  Level Washington Center
Thu 12:08:38 AM 37.2300 -78.6958 46° Northeast 445 512 35,000  Level Washington Center
Thu 12:09:38 AM 37.3142 -78.5844 46° Northeast 445 512 35,000  Level Washington Center
Thu 12:10:38 AM 37.4111 -78.4575 46° Northeast 450 518 35,000  Level Washington Center
Thu 12:11:38 AM 37.4972 -78.3431 46° Northeast 450 518 35,000  Level Washington Center
Thu 12:12:38 AM 37.5833 -78.2281 47° Northeast 445 512 35,000  Level Washington Center
Thu 12:13:38 AM 37.6650 -78.1156 47° Northeast 440 506 35,000  Level Washington Center
Thu 12:14:38 AM 37.7506 -78.0028 46° Northeast 440 506 35,000  Level Washington Center
Thu 12:15:38 AM 37.8322 -77.8897 48° Northeast 440 506 35,000  Level Washington Center
Thu 12:16:38 AM 37.9136 -77.7764 48° Northeast 435 501 35,000  Level Washington Center
Thu 12:17:38 AM 37.9969 -77.6628 47° Northeast 435 501 35,000  Level Washington Center
Thu 12:18:38 AM 38.0758 -77.5569 47° Northeast 429 494 35,000  Level Washington Center
Thu 12:19:38 AM 38.1589 -77.4428 47° Northeast 429 494 35,000  Level Washington Center
Thu 12:20:38 AM 38.2419 -77.3286 47° Northeast 434 499 35,000  Level Washington Center
Thu 12:21:38 AM 38.3228 -77.2142 48° Northeast 439 505 35,000  Level Washington Center
Thu 12:22:38 AM 38.4056 -77.0992 47° Northeast 439 505 35,000  Level Washington Center
Thu 12:23:38 AM 38.4883 -76.9869 47° Northeast 439 505 35,000  Level Washington Center
Thu 12:24:38 AM 38.5689 -76.8689 49° Northeast 439 505 35,000  Level Washington Center
Thu 12:25:38 AM 38.6514 -76.7561 47° Northeast 439 505 35,000  Level Washington Center
Thu 12:26:38 AM 38.7336 -76.6375 48° Northeast 439 505 35,000  Level Washington Center
Thu 12:27:38 AM 38.8158 -76.5214 48° Northeast 439 505 35,000  Level Washington Center
Thu 12:28:38 AM 38.8961 -76.3997 50° Northeast 439 505 35,000  Level Washington Center
Thu 12:29:39 AM 38.9614 -76.2644 58° Northeast 439 505 35,000  Level Washington Center
Thu 12:30:38 AM 39.0267 -76.1447 55° Northeast 444 511 35,000  Level Washington Center
Thu 12:31:38 AM 39.0939 -76.0142 56° Northeast 444 511 35,000  Level Washington Center
Thu 12:32:38 AM 39.1631 -75.8808 56° Northeast 444 511 35,000  Level Washington Center
Thu 12:33:38 AM 39.2447 -75.7578 49° Northeast 444 511 35,000  Level Washington Center
Thu 12:34:38 AM 39.3447 -75.6747 33° Northeast 429 494 35,000  Level Washington Center
Thu 12:36:22 AM 39.5028 -75.4742 44° Northeast 435 501 35,000  Level New York Center
Thu 12:37:23 AM 39.5886 -75.3558 47° Northeast 440 506 35,000  Level New York Center
Thu 12:38:23 AM 39.6722 -75.2425 46° Northeast 435 501 35,000  Level New York Center
Thu 12:39:24 AM 39.7453 -75.1339 49° Northeast 435 501 35,000  Level New York Center
Thu 12:40:23 AM 39.8286 -75.0175 47° Northeast 440 506 35,000  Level New York Center
Thu 12:41:21 AM 39.8897 -74.8831 59° Northeast 435 501 35,000  Level New York Center
Thu 12:42:21 AM 39.9472 -74.7267 64° Northeast 430 495 35,000  Level New York Center
Thu 12:44:49 AM 40.0831 -74.3736 63° Northeast 447 514 35,000  Level Boston Center
Thu 12:45:49 AM 40.1356 -74.2286 65° Northeast 441 507 35,000  Level Boston Center
Thu 12:46:49 AM 40.1897 -74.0833 64° Northeast 441 507 35,000  Level Boston Center
Thu 12:47:49 AM 40.2394 -73.9569 63° Northeast 441 507 35,000  Level Boston Center
Thu 12:48:49 AM 40.2956 -73.8167 62° Northeast 436 502 35,000  Level Boston Center
Thu 12:49:49 AM 40.3517 -73.6492 66° East 442 509 35,000  Level Boston Center
Thu 12:50:49 AM 40.4072 -73.5003 64° Northeast 442 509 35,000  Level Boston Center
Thu 12:51:50 AM 40.4586 -73.3539 65° Northeast 442 509 35,000  Level Boston Center
Thu 12:52:50 AM 40.5117 -73.2072 65° Northeast 442 509 35,000  Level Boston Center
Thu 12:53:49 AM 40.5647 -73.0575 65° Northeast 442 509 35,000  Level Boston Center
Thu 12:54:49 AM 40.6092 -72.9403 63° Northeast 442 509 35,000  Level Boston Center
Thu 12:55:49 AM 40.6703 -72.7603 66° East 442 509 35,000  Level Boston Center
Thu 12:56:49 AM 40.7269 -72.6100 64° Northeast 442 509 35,000  Level Boston Center
Thu 12:57:49 AM 40.7750 -72.4811 64° Northeast 436 502 35,000  Level Boston Center
Thu 12:58:49 AM 40.8289 -72.3303 65° Northeast 442 509 35,000  Level Boston Center
Thu 12:59:50 AM 40.8808 -72.1794 65° Northeast 447 514 35,000  Level Boston Center
Thu 01:00:49 AM 40.9325 -72.0308 65° Northeast 447 514 35,000  Level Boston Center
Thu 01:01:49 AM 40.9964 -71.8736 62° Northeast 442 509 35,000  Level Boston Center
Thu 01:02:50 AM 41.0414 -71.7053 70° East 454 522 35,000  Level Boston Center
Thu 01:03:51 AM 41.0842 -71.5836 65° Northeast 454 522 35,000  Level Boston Center
Thu 01:04:49 AM 41.1517 -71.4147 62° Northeast 441 507 35,000  Level Boston Center
Thu 01:05:49 AM 41.2042 -71.2564 66° East 446 513 35,000  Level Boston Center
Thu 01:06:49 AM 41.2544 -71.1008 67° East 451 519 35,000  Level Boston Center
Thu 01:07:51 AM 41.3069 -70.9478 65° Northeast 451 519 35,000  Level Boston Center
Thu 01:08:51 AM 41.3567 -70.7947 67° East 451 519 35,000  Level Boston Center
Thu 01:09:50 AM 41.4086 -70.6411 66° East 451 519 35,000  Level Boston Center
Thu 01:10:49 AM 41.4517 -70.4764 71° East 456 525 35,000  Level Boston Center
Thu 01:11:49 AM 41.5031 -70.3225 66° East 461 531 35,000  Level Boston Center
Thu 01:12:49 AM 41.5544 -70.1708 66° East 456 525 35,000 -50 Level Boston Center
Thu 01:13:49 AM 41.6033 -70.0164 67° East 456 525 34,900  Descending Boston Center
Thu 01:14:52 AM 41.6542 -69.8700 65° Northeast 445 512 35,000 49 Climbing Boston Center
Thu 01:15:51 AM 41.6986 -69.7153 69° East 440 506 35,000  Level Boston Center
Thu 01:16:49 AM 41.7469 -69.5628 67° East 440 506 35,000  Level Boston Center
Thu 01:17:48 AM 41.7972 -69.4131 66° East 440 506 35,000  Level Boston Center
Thu 01:18:48 AM 41.8472 -69.2628 66° East 440 506 35,000  Level Boston Center
Thu 01:19:49 AM 41.8950 -69.1125 67° East 440 506 35,000  Level Boston Center
Thu 01:20:48 AM 41.9392 -68.9817 66° East 435 501 35,000  Level Boston Center
Thu 01:21:48 AM 41.9864 -68.8256 68° East 440 506 35,000  Level Boston Center
Thu 01:22:10 AM 42.0000 -68.7500 76° East 440 506 35,000  Level Moncton Center
Thu 01:23:10 AM 42.0333 -68.6167 71° East 440 506 35,000  Level Moncton Center
Thu 01:23:50 AM 42.0803 -68.5206 57° Northeast 440 506 35,000  Level Boston Center
Thu 01:24:51 AM 42.1250 -68.3639 69° East 440 506 35,000  Level Boston Center
Thu 01:25:50 AM 42.1714 -68.2122 68° East 440 506 35,000  Level Boston Center
Thu 01:26:51 AM 42.2197 -68.0575 67° East 440 506 35,000  Level Boston Center
Thu 01:27:50 AM 42.2719 -67.8967 66° East 435 501 35,000  Level Boston Center
Thu 01:28:10 AM 42.2833 -67.8333 76° East 440 506 35,000  Level Moncton Center
Thu 01:29:10 AM 42.3167 -67.6667 75° East 440 506 35,000  Level Moncton Center
Thu 01:30:10 AM 42.3667 -67.5167 66° East 440 506 35,000  Level Moncton Center
Thu 01:31:10 AM 42.4167 -67.3667 66° East 440 506 35,000  Level Moncton Center
Thu 01:32:10 AM 42.4500 -67.2167 73° East 440 506 35,000  Level Moncton Center
Thu 01:33:10 AM 42.5000 -67.0667 66° East 440 506 35,000  Level Moncton Center
Thu 01:34:10 AM 42.5333 -66.9167 73° East 440 506 35,000  Level Moncton Center
Thu 01:35:10 AM 42.5833 -66.7500 68° East 440 506 35,000  Level Moncton Center
Thu 01:36:10 AM 42.6333 -66.6000 66° East 440 506 35,000  Level Moncton Center
Thu 01:37:10 AM 42.6833 -66.4333 68° East 440 506 35,000  Level Moncton Center
Thu 01:38:10 AM 42.7167 -66.2833 73° East 440 506 35,000  Level Moncton Center
Thu 01:39:10 AM 42.7667 -66.1333 66° East 440 506 35,000  Level Moncton Center
Thu 01:40:10 AM 42.8000 -65.9667 75° East 440 506 35,000  Level Moncton Center
Thu 01:41:10 AM 42.8333 -65.8333 71° East 440 506 35,000  Level Moncton Center
Thu 01:42:10 AM 42.9000 -65.6500 64° Northeast 440 506 35,000  Level Moncton Center
Thu 01:43:10 AM 42.9333 -65.5167 71° East 440 506 35,000  Level Moncton Center
Thu 01:44:10 AM 42.9833 -65.3500 68° East 440 506 35,000  Level Moncton Center
Thu 01:45:10 AM 43.0167 -65.2000 73° East 440 506 35,000  Level Moncton Center
Thu 01:46:10 AM 43.0667 -65.0333 68° East 440 506 35,000  Level Moncton Center
Thu 01:47:10 AM 43.1000 -64.8833 73° East 440 506 35,000  Level Moncton Center
Thu 01:48:10 AM 43.1500 -64.7167 68° East 440 506 35,000  Level Moncton Center
Thu 01:49:10 AM 43.1833 -64.5500 75° East 440 506 35,000  Level Moncton Center
Thu 01:50:10 AM 43.2333 -64.4000 65° Northeast 440 506 35,000  Level Moncton Center
Thu 01:51:10 AM 43.2667 -64.2667 71° East 440 506 35,000  Level Moncton Center
Thu 01:52:10 AM 43.3000 -64.1000 75° East 440 506 35,000  Level Moncton Center
Thu 01:53:10 AM 43.3500 -63.9333 68° East 440 506 35,000  Level Moncton Center
Thu 01:54:10 AM 43.3833 -63.7833 73° East 440 506 35,000  Level Moncton Center
Thu 01:55:10 AM 43.4333 -63.6333 65° Northeast 430 495 35,000  Level Moncton Center
Thu 01:56:10 AM 43.4667 -63.4500 76° East 440 506 35,000  Level Moncton Center
Thu 01:57:10 AM 43.5167 -63.2833 67° East 450 518 35,000  Level Moncton Center
Thu 01:58:10 AM 43.5500 -63.1500 71° East 450 518 35,000  Level Moncton Center
Thu 01:58:41 AM 43.5667 -63.0500 77° East 450 518 35,000  Level Gander Center
Thu 01:59:41 AM 43.6000 -62.8833 75° East 450 518 35,000  Level Gander Center
Thu 02:00:41 AM 43.6500 -62.7333 65° Northeast 450 518 35,000  Level Gander Center
Thu 02:01:10 AM 43.6667 -62.6333 77° East 450 518 35,000  Level Moncton Center
Thu 02:02:10 AM 43.7000 -62.4833 73° East 440 506 35,000  Level Moncton Center
Thu 02:03:10 AM 43.7333 -62.3167 74° East 430 495 35,000  Level Moncton Center
Thu 02:04:10 AM 43.7833 -62.1833 63° Northeast 430 495 35,000  Level Moncton Center
Thu 02:04:41 AM 43.7833 -62.0833 90° East 430 495 35,000  Level Gander Center
Thu 02:05:41 AM 43.8333 -61.9333 65° Northeast 430 495 35,000  Level Gander Center
Thu 02:06:41 AM 43.8833 -61.7667 67° East 440 506 35,000  Level Gander Center
Thu 02:07:10 AM 43.8833 -61.7000 90° East 430 495 35,000  Level Moncton Center
Thu 02:08:10 AM 43.9167 -61.5500 73° East 430 495 35,000  Level Moncton Center
Thu 02:09:10 AM 43.9667 -61.3833 67° East 430 495 35,000  Level Moncton Center
Thu 02:10:10 AM 43.9833 -61.2167 82° East 440 506 35,000  Level Moncton Center
Thu 02:11:10 AM 44.0333 -61.0500 67° East 450 518 35,000  Level Moncton Center
Thu 02:12:10 AM 44.0833 -60.8667 69° East 450 518 35,000  Level Moncton Center
Thu 02:13:10 AM 44.1000 -60.7000 82° East 460 529 35,000  Level Moncton Center
Thu 02:13:41 AM 44.1333 -60.6167 61° Northeast 460 529 35,000  Level Gander Center
Thu 02:14:10 AM 44.1500 -60.5333 74° East 450 518 35,000  Level Moncton Center
Thu 02:15:10 AM 44.1833 -60.3667 74° East 450 518 35,000  Level Moncton Center
Thu 02:16:10 AM 44.2167 -60.2000 74° East 460 529 35,000  Level Moncton Center
Thu 02:17:10 AM 44.2500 -60.0333 74° East 470 541 35,000  Level Moncton Center
Thu 02:18:10 AM 44.3000 -59.8333 71° East 470 541 35,000  Level Moncton Center
Thu 02:19:10 AM 44.3333 -59.6667 74° East 480 552 35,000  Level Moncton Center
Thu 02:20:10 AM 44.3833 -59.4833 69° East 480 552 35,000  Level Moncton Center
Thu 02:21:10 AM 44.4000 -59.3000 83° East 490 564 35,000  Level Moncton Center
Thu 02:21:41 AM 44.4167 -59.2000 77° East 490 564 35,000  Level Gander Center
Thu 02:22:10 AM 44.4500 -59.1000 65° Northeast 490 564 35,000  Level Moncton Center
Thu 02:23:10 AM 44.4833 -58.9333 74° East 500 575 35,000  Level Moncton Center
Thu 02:23:41 AM 44.5000 -58.8333 77° East 500 575 35,000  Level Gander Center
Thu 02:24:41 AM 44.5500 -58.6333 71° East 500 575 35,000  Level Gander Center
Thu 02:25:41 AM 44.5667 -58.4500 83° East 500 575 35,000  Level Gander Center
Thu 02:26:41 AM 44.6167 -58.2667 69° East 500 575 35,000  Level Gander Center
Thu 02:27:10 AM 44.6333 -58.1667 77° East 500 575 35,000  Level Moncton Center
Thu 02:27:41 AM 44.6500 -58.0667 77° East 500 575 35,000  Level Gander Center
Thu 02:28:41 AM 44.6833 -57.8833 76° East 510 587 35,000  Level Gander Center
Thu 02:29:10 AM 44.7000 -57.7833 77° East 510 587 35,000  Level Moncton Center
Thu 02:30:10 AM 44.7500 -57.5833 71° East 510 587 35,000  Level Moncton Center
Thu 02:30:41 AM 44.7667 -57.4833 77° East 520 598 35,000  Level Gander Center
Thu 02:31:41 AM 44.8000 -57.3167 74° East 520 598 35,000  Level Gander Center
Thu 02:32:41 AM 44.8500 -57.1000 72° East 520 598 35,000  Level Gander Center
Thu 02:33:10 AM 44.8667 -57.0000 77° East 520 598 35,000  Level Moncton Center
Thu 02:34:10 AM 44.8833 -56.8167 83° East 510 587 35,000  Level Moncton Center
Thu 02:35:10 AM 44.9167 -56.6167 77° East 510 587 35,000  Level Moncton Center
Thu 02:35:41 AM 44.9333 -56.5167 77° East 520 598 35,000  Level Gander Center
Thu 02:36:41 AM 44.9833 -56.3333 69° East 510 587 35,000  Level Gander Center
Thu 02:37:10 AM 44.9833 -56.2333 90° East 500 575 35,000  Level Moncton Center
Thu 02:38:10 AM 45.0333 -56.0667 67° East 480 552 35,000  Level Moncton Center
Thu 02:39:41 AM 45.0833 -55.7833 76° East 480 552 35,000  Level Gander Center
Thu 02:40:10 AM 45.1000 -55.6667 79° East 480 552 35,000  Level Moncton Center
Thu 02:40:41 AM 45.1167 -55.5833 74° East 490 564 35,000  Level Gander Center
Thu 02:41:10 AM 45.1333 -55.5000 74° East 490 564 35,000  Level Moncton Center
Thu 02:42:10 AM 45.1667 -55.3000 77° East 490 564 35,000  Level Moncton Center
Thu 02:43:10 AM 45.2000 -55.1333 74° East 500 575 35,000  Level Moncton Center
Thu 02:44:10 AM 45.2333 -54.9000 78° East 500 575 35,000  Level Moncton Center
Thu 02:45:08 AM 45.2667 -54.7333 74° East 500 575 35,000  Level Gander Center
Thu 02:46:08 AM 45.3000 -54.5500 75° East 490 564 35,000  Level Gander Center
Thu 02:47:08 AM 45.3167 -54.3500 83° East 490 564 35,000  Level Gander Center
Thu 02:48:08 AM 45.3667 -54.1833 67° East 490 564 35,000  Level Gander Center
Thu 02:48:41 AM 45.3667 -54.0667 90° East 500 575 35,000  Level Gander Center
Thu 02:49:10 AM 45.3833 -53.9667 77° East 490 564 35,000 539 Level Moncton Center
Thu 02:50:10 AM 45.4167 -53.8000 74° East 500 575 35,800 1,017 Climbing Moncton Center
Thu 02:51:08 AM 45.4500 -53.6000 77° East 510 587 37,000 610 Climbing Gander Center
Thu 02:52:08 AM 45.5000 -53.4000 70° East 500 575 37,000  Level Gander Center
Thu 02:53:08 AM 45.5167 -53.2000 83° East 500 575 37,000  Level Gander Center
Thu 02:53:41 AM 45.5333 -53.1000 77° East 500 575 37,000  Level Gander Center
Thu 02:54:10 AM 45.5500 -53.0000 77° East 500 575 37,000  Level Moncton Center
Thu 02:55:10 AM 45.5833 -52.8333 74° East 500 575 37,000  Level Moncton Center
Thu 02:55:41 AM 45.5833 -52.7167 90° East 500 575 37,000  Level Gander Center
Thu 02:56:41 AM 45.6333 -52.5167 70° East 500 575 37,000  Level Gander Center
Thu 02:57:08 AM 45.6333 -52.4167 90° East 500 575 37,000  Level Gander Center
Thu 02:58:08 AM 45.6667 -52.2500 74° East 510 587 37,000  Level Gander Center
Thu 02:59:08 AM 45.7000 -52.0333 78° East 510 587 37,000  Level Gander Center
Thu 02:59:41 AM 45.7167 -51.9333 77° East 510 587 37,000  Level Gander Center
Thu 03:00:41 AM 45.7500 -51.7333 76° East 510 587 37,000  Level Gander Center
Thu 03:01:41 AM 45.7667 -51.5167 84° East 510 587 37,000  Level Gander Center
Thu 03:02:08 AM 45.7833 -51.4333 74° East 510 587 37,000  Level Gander Center
Thu 03:02:41 AM 45.7833 -51.3167 90° East 520 598 37,000  Level Gander Center
Thu 03:03:10 AM 45.8000 -51.2333 74° East 520 598 37,000  Level Moncton Center
Thu 03:04:08 AM 45.8333 -51.0333 76° East 510 587 37,000  Level Gander Center
Thu 03:04:41 AM 45.8500 -50.9167 78° East 520 598 37,000  Level Gander Center
Thu 03:05:08 AM 45.8667 -50.8333 74° East 520 598 37,000  Level Gander Center
Thu 03:05:41 AM 45.8833 -50.7167 78° East 510 587 37,000  Level Gander Center
Thu 03:06:41 AM 45.9167 -50.5167 76° East 510 587 37,000  Level Gander Center
Thu 03:07:41 AM 45.9333 -50.3167 83° East 520 598 37,000  Level Gander Center
Thu 03:08:41 AM 45.9667 -50.1167 76° East 510 587 37,000  Level Gander Center
Thu 03:09:41 AM 45.9833 -49.9167 83° East 510 587 37,000  Level Gander Center
Thu 03:10:41 AM 46.0333 -49.7500 67° East 510 587 37,000  Level Gander Center
Thu 03:11:41 AM 46.0833 -49.5333 72° East 510 587 37,000  Level Gander Center
Thu 03:12:41 AM 46.1333 -49.3333 70° East 510 587 37,000  Level Gander Center
Thu 03:13:08 AM 46.1500 -49.2500 74° East 510 587 37,000  Level Gander Center
Thu 03:14:08 AM 46.2000 -49.0667 68° East 520 598 37,000  Level Gander Center
Thu 03:14:41 AM 46.2167 -48.9500 78° East 510 587 37,000  Level Gander Center
Thu 03:15:41 AM 46.2667 -48.7667 68° East 520 598 37,000  Level Gander Center
Thu 03:16:41 AM 46.3167 -48.5667 70° East 520 598 37,000  Level Gander Center
Thu 03:17:08 AM 46.3333 -48.4833 74° East 520 598 37,000  Level Gander Center
Thu 03:18:08 AM 46.3833 -48.2833 70° East 510 587 37,000  Level Gander Center
Thu 03:18:41 AM 46.4167 -48.1667 67° East 520 598 37,000  Level Gander Center
Thu 03:19:41 AM 46.4667 -47.9833 68° East 510 587 37,000  Level Gander Center
Thu 03:20:41 AM 46.5000 -47.7833 76° East 520 598 37,000  Level Gander Center
Thu 03:21:08 AM 46.5167 -47.7000 74° East 520 598 37,000  Level Gander Center
Thu 03:21:41 AM 46.5500 -47.6000 64° Northeast 520 598 37,000  Level Gander Center
Thu 03:23:41 AM 46.6333 -47.2000 73° East 490 564 37,000  Level Gander Center
Thu 03:24:41 AM 46.6667 -47.0000 76° East 490 564 37,000  Level Gander Center
Thu 03:25:41 AM 46.7167 -46.8167 68° East 510 587 37,000 -8 Level Gander Center
Thu 03:27:00 AM 46.7816 -46.5824 68° East  Level FlightAware Approximate
Thu 03:34:00 AM 47.0643 -45.3005 73° East  Level FlightAware Approximate
Thu 03:35:00 AM 47.1016 -45.1154 73° East  Level FlightAware Approximate
Thu 03:36:00 AM 47.1385 -44.9299 74° East  Level FlightAware Approximate
Thu 03:37:00 AM 47.1752 -44.7442 74° East  Level FlightAware Approximate
Thu 03:38:00 AM 47.2116 -44.5583 74° East  Level FlightAware Approximate
Thu 03:39:00 AM 47.2476 -44.3720 74° East  Level FlightAware Approximate
Thu 03:40:00 AM 47.2834 -44.1856 74° East  Level FlightAware Approximate
Thu 03:41:00 AM 47.3189 -43.9989 74° East  Level FlightAware Approximate
Thu 03:42:00 AM 47.3540 -43.8119 74° East  Level FlightAware Approximate
Thu 03:43:00 AM 47.3891 -43.6248 74° East  Level FlightAware Approximate
Thu 03:44:00 AM 47.4239 -43.4374 75° East  Level FlightAware Approximate
Thu 03:45:00 AM 47.4583 -43.2498 75° East  Level FlightAware Approximate
Thu 03:46:00 AM 47.4924 -43.0619 75° East  Level FlightAware Approximate
Thu 03:47:00 AM 47.5263 -42.8738 75° East  Level FlightAware Approximate
Thu 03:48:00 AM 47.5598 -42.6854 75° East  Level FlightAware Approximate
Thu 03:49:00 AM 47.5930 -42.4968 75° East  Level FlightAware Approximate
Thu 03:50:00 AM 47.6259 -42.3080 75° East  Level FlightAware Approximate
Thu 03:51:00 AM 47.6585 -42.1189 76° East  Level FlightAware Approximate
Thu 03:52:00 AM 47.6908 -41.9296 76° East  Level FlightAware Approximate
Thu 03:53:00 AM 47.7228 -41.7401 76° East  Level FlightAware Approximate
Thu 03:54:00 AM 47.7544 -41.5503 76° East  Level FlightAware Approximate
Thu 03:55:00 AM 47.7858 -41.3603 76° East  Level FlightAware Approximate
Thu 03:56:00 AM 47.8168 -41.1701 76° East  Level FlightAware Approximate
Thu 03:57:00 AM 47.8475 -40.9796 76° East  Level FlightAware Approximate
Thu 03:58:00 AM 47.8779 -40.7889 77° East  Level FlightAware Approximate
Thu 03:59:00 AM 47.9080 -40.5980 77° East  Level FlightAware Approximate
Thu 04:00:00 AM 47.9378 -40.4069 77° East  Level FlightAware Approximate
Thu 04:01:00 AM 47.9672 -40.2156 77° East  Level FlightAware Approximate
Thu 04:02:00 AM 47.9964 -40.0240 77° East  Level FlightAware Approximate
Thu 04:03:00 AM 48.0244 -39.8320 78° East  Level FlightAware Approximate
Thu 04:04:00 AM 48.0520 -39.6397 78° East  Level FlightAware Approximate
Thu 04:05:00 AM 48.0793 -39.4472 78° East  Level FlightAware Approximate
Thu 04:06:00 AM 48.1062 -39.2545 78° East  Level FlightAware Approximate
Thu 04:07:00 AM 48.1328 -39.0616 78° East  Level FlightAware Approximate
Thu 04:08:00 AM 48.1591 -38.8685 78° East  Level FlightAware Approximate
Thu 04:09:00 AM 48.1851 -38.6753 79° East  Level FlightAware Approximate
Thu 04:10:00 AM 48.2108 -38.4818 79° East  Level FlightAware Approximate
Thu 04:11:00 AM 48.2361 -38.2881 79° East  Level FlightAware Approximate
Thu 04:12:00 AM 48.2611 -38.0942 79° East  Level FlightAware Approximate
Thu 04:13:00 AM 48.2858 -37.9002 79° East  Level FlightAware Approximate
Thu 04:14:00 AM 48.3102 -37.7060 79° East  Level FlightAware Approximate
Thu 04:15:00 AM 48.3342 -37.5115 79° East  Level FlightAware Approximate
Thu 04:16:00 AM 48.3579 -37.3169 80° East  Level FlightAware Approximate
Thu 04:17:00 AM 48.3812 -37.1222 80° East  Level FlightAware Approximate
Thu 04:18:00 AM 48.4043 -36.9272 80° East  Level FlightAware Approximate
Thu 04:19:00 AM 48.4270 -36.7321 80° East  Level FlightAware Approximate
Thu 04:20:00 AM 48.4494 -36.5368 80° East  Level FlightAware Approximate
Thu 04:21:00 AM 48.4714 -36.3413 80° East  Level FlightAware Approximate
Thu 04:22:00 AM 48.4931 -36.1456 80° East  Level FlightAware Approximate
Thu 04:23:00 AM 48.5145 -35.9498 81° East  Level FlightAware Approximate
Thu 04:24:00 AM 48.5356 -35.7538 81° East  Level FlightAware Approximate
Thu 04:25:00 AM 48.5563 -35.5577 81° East  Level FlightAware Approximate
Thu 04:26:00 AM 48.5767 -35.3614 81° East  Level FlightAware Approximate
Thu 04:27:00 AM 48.5967 -35.1649 81° East  Level FlightAware Approximate
Thu 04:28:00 AM 48.6165 -34.9683 81° East  Level FlightAware Approximate
Thu 04:29:00 AM 48.6358 -34.7715 81° East  Level FlightAware Approximate
Thu 04:30:00 AM 48.6549 -34.5746 82° East  Level FlightAware Approximate
Thu 04:31:00 AM 48.6736 -34.3776 82° East  Level FlightAware Approximate
Thu 04:32:00 AM 48.6920 -34.1804 82° East  Level FlightAware Approximate
Thu 04:33:00 AM 48.7100 -33.9830 82° East  Level FlightAware Approximate
Thu 04:34:00 AM 48.7277 -33.7855 82° East  Level FlightAware Approximate
Thu 04:35:00 AM 48.7451 -33.5879 82° East  Level FlightAware Approximate
Thu 04:36:00 AM 48.7621 -33.3901 82° East  Level FlightAware Approximate
Thu 04:37:00 AM 48.7788 -33.1922 83° East  Level FlightAware Approximate
Thu 04:38:00 AM 48.7952 -32.9942 83° East  Level FlightAware Approximate
Thu 04:39:00 AM 48.8112 -32.7960 83° East  Level FlightAware Approximate
Thu 04:40:00 AM 48.8269 -32.5978 83° East  Level FlightAware Approximate
Thu 04:41:00 AM 48.8422 -32.3993 83° East  Level FlightAware Approximate
Thu 04:42:00 AM 48.8572 -32.2008 83° East  Level FlightAware Approximate
Thu 04:43:00 AM 48.8718 -32.0022 84° East  Level FlightAware Approximate
Thu 04:44:00 AM 48.8861 -31.8034 84° East  Level FlightAware Approximate
Thu 04:45:00 AM 48.9001 -31.6046 84° East  Level FlightAware Approximate
Thu 04:46:00 AM 48.9137 -31.4056 84° East  Level FlightAware Approximate
Thu 04:47:00 AM 48.9270 -31.2065 84° East  Level FlightAware Approximate
Thu 04:48:00 AM 48.9399 -31.0073 84° East  Level FlightAware Approximate
Thu 04:49:00 AM 48.9525 -30.8080 84° East  Level FlightAware Approximate
Thu 04:50:00 AM 48.9648 -30.6086 85° East  Level FlightAware Approximate
Thu 04:51:00 AM 48.9767 -30.4091 85° East  Level FlightAware Approximate
Thu 04:52:00 AM 48.9882 -30.2096 85° East  Level FlightAware Approximate
Thu 04:53:00 AM 48.9995 -30.0099 85° East  Level FlightAware Approximate
Thu 04:54:00 AM 49.0077 -29.8098 86° East  Level FlightAware Approximate
Thu 04:55:00 AM 49.0155 -29.6097 87° East  Level FlightAware Approximate
Thu 04:56:00 AM 49.0229 -29.4095 87° East  Level FlightAware Approximate
Thu 04:57:00 AM 49.0300 -29.2093 87° East  Level FlightAware Approximate
Thu 04:58:00 AM 49.0368 -29.0090 87° East  Level FlightAware Approximate
Thu 04:59:00 AM 49.0432 -28.8086 87° East  Level FlightAware Approximate
Thu 05:00:00 AM 49.0492 -28.6082 87° East  Level FlightAware Approximate
Thu 05:01:00 AM 49.0550 -28.4078 87° East  Level FlightAware Approximate
Thu 05:02:00 AM 49.0603 -28.2073 88° East  Level FlightAware Approximate
Thu 05:03:00 AM 49.0653 -28.0068 88° East  Level FlightAware Approximate
Thu 05:04:00 AM 49.0700 -27.8062 88° East  Level FlightAware Approximate
Thu 05:05:00 AM 49.0743 -27.6056 88° East  Level FlightAware Approximate
Thu 05:06:00 AM 49.0783 -27.4049 88° East  Level FlightAware Approximate
Thu 05:07:00 AM 49.0819 -27.2043 88° East  Level FlightAware Approximate
Thu 05:08:00 AM 49.0852 -27.0036 88° East  Level FlightAware Approximate
Thu 05:09:00 AM 49.0881 -26.8029 89° East  Level FlightAware Approximate
Thu 05:10:00 AM 49.0907 -26.6021 89° East  Level FlightAware Approximate
Thu 05:11:00 AM 49.0929 -26.4013 89° East  Level FlightAware Approximate
Thu 05:12:00 AM 49.0948 -26.2005 89° East  Level FlightAware Approximate
Thu 05:13:00 AM 49.0963 -25.9997 89° East  Level FlightAware Approximate
Thu 05:14:00 AM 49.0975 -25.7989 89° East  Level FlightAware Approximate
Thu 05:15:00 AM 49.0983 -25.5981 90° East  Level FlightAware Approximate
Thu 05:16:00 AM 49.0988 -25.3973 90° East  Level FlightAware Approximate
Thu 05:17:00 AM 49.0989 -25.1965 90° East  Level FlightAware Approximate
Thu 05:18:00 AM 49.0987 -24.9956 90° East  Level FlightAware Approximate
Thu 05:19:00 AM 49.0982 -24.7948 90° East  Level FlightAware Approximate
Thu 05:20:00 AM 49.0973 -24.5940 90° East  Level FlightAware Approximate
Thu 05:21:00 AM 49.0960 -24.3932 90° East  Level FlightAware Approximate
Thu 05:22:00 AM 49.0944 -24.1924 91° East  Level FlightAware Approximate
Thu 05:23:00 AM 49.0925 -23.9916 91° East  Level FlightAware Approximate
Thu 05:24:00 AM 49.0902 -23.7908 91° East  Level FlightAware Approximate
Thu 05:25:00 AM 49.0875 -23.5901 91° East  Level FlightAware Approximate
Thu 05:26:00 AM 49.0845 -23.3894 91° East  Level FlightAware Approximate
Thu 05:27:00 AM 49.0812 -23.1887 91° East  Level FlightAware Approximate
Thu 05:28:00 AM 49.0775 -22.9880 92° East  Level FlightAware Approximate
Thu 05:29:00 AM 49.0734 -22.7873 92° East  Level FlightAware Approximate
Thu 05:30:00 AM 49.0691 -22.5868 92° East  Level FlightAware Approximate
Thu 05:31:00 AM 49.0651 -22.3861 91° East  Level FlightAware Approximate
Thu 05:32:00 AM 49.0615 -22.1855 91° East  Level FlightAware Approximate
Thu 05:33:00 AM 49.0576 -21.9849 92° East  Level FlightAware Approximate
Thu 05:34:00 AM 49.0533 -21.7844 92° East  Level FlightAware Approximate
Thu 05:35:00 AM 49.0487 -21.5839 92° East  Level FlightAware Approximate
Thu 05:36:00 AM 49.0437 -21.3834 92° East  Level FlightAware Approximate
Thu 05:37:00 AM 49.0384 -21.1830 92° East  Level FlightAware Approximate
Thu 05:38:00 AM 49.0328 -20.9826 92° East  Level FlightAware Approximate
Thu 05:39:00 AM 49.0268 -20.7823 93° East  Level FlightAware Approximate
Thu 05:40:00 AM 49.0204 -20.5820 93° East  Level FlightAware Approximate
Thu 05:41:00 AM 49.0137 -20.3817 93° East  Level FlightAware Approximate
Thu 05:42:00 AM 49.0067 -20.1815 93° East  Level FlightAware Approximate
Thu 05:43:00 AM 49.0017 -19.9816 82° East  Level FlightAware Approximate
Thu 05:44:00 AM 49.0198 -19.7830 82° East  Level FlightAware Approximate
Thu 05:45:00 AM 49.0376 -19.5843 82° East  Level FlightAware Approximate
Thu 05:46:00 AM 49.0550 -19.3855 82° East  Level FlightAware Approximate
Thu 05:47:00 AM 49.0720 -19.1865 82° East  Level FlightAware Approximate
Thu 05:48:00 AM 49.0888 -18.9874 83° East  Level FlightAware Approximate
Thu 05:49:00 AM 49.1052 -18.7881 83° East  Level FlightAware Approximate
Thu 05:50:00 AM 49.1212 -18.5887 83° East  Level FlightAware Approximate
Thu 05:51:00 AM 49.1369 -18.3892 83° East  Level FlightAware Approximate
Thu 05:52:00 AM 49.1523 -18.1896 83° East  Level FlightAware Approximate
Thu 05:53:00 AM 49.1673 -17.9898 83° East  Level FlightAware Approximate
Thu 05:54:00 AM 49.1820 -17.7899 84° East  Level FlightAware Approximate
Thu 05:55:00 AM 49.1963 -17.5899 84° East  Level FlightAware Approximate
Thu 05:56:00 AM 49.2103 -17.3898 84° East  Level FlightAware Approximate
Thu 05:57:00 AM 49.2239 -17.1896 84° East  Level FlightAware Approximate
Thu 05:58:00 AM 49.2372 -16.9893 84° East  Level FlightAware Approximate
Thu 05:59:00 AM 49.2501 -16.7888 84° East  Level FlightAware Approximate
Thu 06:00:00 AM 49.2627 -16.5883 84° East  Level FlightAware Approximate
Thu 06:01:00 AM 49.2750 -16.3877 85° East  Level FlightAware Approximate
Thu 06:02:00 AM 49.2869 -16.1869 85° East  Level FlightAware Approximate
Thu 06:03:00 AM 49.2984 -15.9861 85° East  Level FlightAware Approximate
Thu 06:04:00 AM 49.3096 -15.7851 85° East  Level FlightAware Approximate
Thu 06:05:00 AM 49.3205 -15.5841 85° East  Level FlightAware Approximate
Thu 06:06:00 AM 49.3309 -15.3839 85° East  Level FlightAware Approximate
Thu 06:07:00 AM 49.3410 -15.1835 85° East  Level FlightAware Approximate
Thu 06:08:00 AM 49.3509 -14.9831 85° East  Level FlightAware Approximate
Thu 06:09:00 AM 49.3610 -14.7827 85° East  Level FlightAware Approximate
Thu 06:10:00 AM 49.3709 -14.5822 86° East  Level FlightAware Approximate
Thu 06:11:00 AM 49.3803 -14.3816 86° East  Level FlightAware Approximate
Thu 06:12:00 AM 49.3895 -14.1809 86° East  Level FlightAware Approximate
Thu 06:13:00 AM 49.3983 -13.9802 86° East  Level FlightAware Approximate
Thu 06:14:00 AM 49.4067 -13.7794 86° East  Level FlightAware Approximate
Thu 06:15:00 AM 49.4148 -13.5785 86° East  Level FlightAware Approximate
Thu 06:16:00 AM 49.4225 -13.3776 87° East  Level FlightAware Approximate
Thu 06:17:00 AM 49.4299 -13.1766 87° East  Level FlightAware Approximate
Thu 06:18:00 AM 49.4370 -12.9755 87° East  Level FlightAware Approximate
Thu 06:19:00 AM 49.4437 -12.7744 87° East  Level FlightAware Approximate
Thu 06:20:00 AM 49.4500 -12.5732 87° East  Level FlightAware Approximate
Thu 06:21:00 AM 49.4560 -12.3720 87° East  Level FlightAware Approximate
Thu 06:22:00 AM 49.4617 -12.1708 87° East  Level FlightAware Approximate
Thu 06:23:00 AM 49.4670 -11.9694 88° East  Level FlightAware Approximate
Thu 06:24:00 AM 49.4719 -11.7681 88° East  Level FlightAware Approximate
Thu 06:25:00 AM 49.4765 -11.5667 88° East  Level FlightAware Approximate
Thu 06:26:00 AM 49.4808 -11.3653 88° East  Level FlightAware Approximate
Thu 06:27:00 AM 49.4847 -11.1638 88° East  Level FlightAware Approximate
Thu 06:28:00 AM 49.4882 -10.9623 88° East  Level FlightAware Approximate
Thu 06:29:00 AM 49.4914 -10.7608 89° East  Level FlightAware Approximate
Thu 06:30:00 AM 49.4943 -10.5593 89° East  Level FlightAware Approximate
Thu 06:31:00 AM 49.4968 -10.3577 89° East  Level FlightAware Approximate
Thu 06:32:00 AM 49.4989 -10.1561 89° East  Level FlightAware Approximate
Thu 06:33:00 AM 49.5007 -9.9545 89° East  Level FlightAware Approximate
Thu 06:33:12 AM 49.2563 -8.9856 89° East 452 520 35,500  Level FlightAware UK
Thu 06:33:30 AM 49.2585 -8.9208 87° East 452 520 35,500  Level FlightAware UK
Thu 06:33:48 AM 49.2602 -8.8559 88° East 452 520 35,500  Level FlightAware UK
Thu 06:34:06 AM 49.2618 -8.7906 88° East 452 520 35,500  Level FlightAware UK
Thu 06:34:24 AM 49.2633 -8.7252 88° East 452 520 35,500  Level FlightAware UK
Thu 06:34:42 AM 49.2648 -8.6599 88° East 450 518 35,500  Level FlightAware UK
Thu 06:35:00 AM 49.2663 -8.5945 88° East 450 518 35,500  Level FlightAware UK
Thu 06:35:18 AM 49.2676 -8.5292 88° East 446 513 35,500  Level FlightAware UK
Thu 06:35:36 AM 49.2689 -8.4637 88° East 446 513 35,500  Level FlightAware UK
Thu 06:35:54 AM 49.2703 -8.3982 88° East 448 516 35,500  Level FlightAware UK
Thu 06:36:12 AM 49.2716 -8.3326 88° East 448 516 35,500  Level FlightAware UK
Thu 06:36:30 AM 49.2729 -8.2667 88° East 450 518 35,500  Level FlightAware UK
Thu 06:36:48 AM 49.2742 -8.2008 88° East 454 522 35,500  Level FlightAware UK
Thu 06:37:06 AM 49.2756 -8.1348 88° East 456 525 35,500  Level FlightAware UK
Thu 06:37:24 AM 49.2768 -8.0688 88° East 456 525 35,500  Level FlightAware UK
Thu 06:37:42 AM 49.2777 -8.0018 89° East 456 525 35,500  Level FlightAware UK
Thu 06:38:00 AM 49.2787 -7.9356 89° East 456 525 35,500  Level FlightAware UK
Thu 06:38:18 AM 49.2796 -7.8694 89° East 456 525 35,500  Level FlightAware UK
Thu 06:38:42 AM 49.2808 -7.7811 89° East 456 525 35,500  Level FlightAware UK
Thu 06:39:00 AM 49.2828 -7.7150 87° East 456 525 35,500  Level FlightAware UK
Thu 06:39:18 AM 49.2869 -7.6485 85° East 454 522 35,500  Level FlightAware UK
Thu 06:39:42 AM 49.2919 -7.5603 85° East 454 522 35,500  Level FlightAware UK
Thu 06:40:00 AM 49.2951 -7.4939 86° East 452 520 35,500  Level FlightAware UK
Thu 06:40:30 AM 49.2999 -7.3833 86° East 454 522 35,500  Level FlightAware UK
Thu 06:40:48 AM 49.3027 -7.3169 86° East 454 522 35,500  Level FlightAware UK
Thu 06:41:06 AM 49.3053 -7.2502 86° East 454 522 35,500  Level FlightAware UK
Thu 06:41:24 AM 49.3079 -7.1836 87° East 456 525 35,500  Level FlightAware UK
Thu 06:41:42 AM 49.3105 -7.1169 87° East 456 525 35,500  Level FlightAware UK
Thu 06:42:00 AM 49.3131 -7.0502 87° East 458 527 35,500  Level FlightAware UK
Thu 06:42:18 AM 49.3154 -6.9835 87° East 458 527 35,500  Level FlightAware UK
Thu 06:42:36 AM 49.3176 -6.9161 87° East 456 525 35,500  Level FlightAware UK
Thu 06:42:54 AM 49.3198 -6.8493 87° East 456 525 35,500  Level FlightAware UK
Thu 06:43:12 AM 49.3220 -6.7827 87° East 456 525 35,500  Level FlightAware UK
Thu 06:43:30 AM 49.3242 -6.7161 87° East 454 522 35,500  Level FlightAware UK
Thu 06:43:48 AM 49.3265 -6.6495 87° East 452 520 35,500  Level FlightAware UK
Thu 06:44:06 AM 49.3289 -6.5831 87° East 452 520 35,500  Level FlightAware UK
Thu 06:44:30 AM 49.3319 -6.4945 87° East 452 520 35,500  Level FlightAware UK
Thu 06:44:48 AM 49.3340 -6.4280 87° East 452 520 35,500  Level FlightAware UK
Thu 06:45:06 AM 49.3360 -6.3615 87° East 452 520 35,500  Level FlightAware UK
Thu 06:45:24 AM 49.3379 -6.2950 87° East 454 522 35,500  Level FlightAware UK
Thu 06:45:48 AM 49.3406 -6.2064 87° East 454 522 35,500  Level FlightAware UK
Thu 06:46:06 AM 49.3425 -6.1399 87° East 452 520 35,500  Level FlightAware UK
Thu 06:46:24 AM 49.3445 -6.0735 87° East 452 520 35,500  Level FlightAware UK
Thu 06:46:54 AM 49.3478 -5.9627 87° East 452 520 35,500  Level FlightAware UK
Thu 06:47:18 AM 49.3501 -5.8742 88° East 452 520 35,500  Level FlightAware UK
Thu 06:47:36 AM 49.3519 -5.8071 88° East 452 520 35,500  Level FlightAware UK
Thu 06:47:54 AM 49.3538 -5.7408 87° East 450 518 35,500  Level FlightAware UK
Thu 06:48:12 AM 49.3556 -5.6744 88° East 450 518 35,500  Level FlightAware UK
Thu 06:48:36 AM 49.3578 -5.5859 88° East 450 518 35,500  Level FlightAware UK
Thu 06:48:54 AM 49.3593 -5.5195 88° East 448 516 35,500  Level FlightAware UK
Thu 06:49:18 AM 49.3614 -5.4309 88° East 448 516 35,500  Level FlightAware UK
Thu 06:49:36 AM 49.3629 -5.3637 88° East 450 518 35,500  Level FlightAware UK
Thu 06:49:54 AM 49.3643 -5.2972 88° East 452 520 35,500  Level FlightAware UK
Thu 06:50:12 AM 49.3658 -5.2306 88° East 452 520 35,500  Level FlightAware UK
Thu 06:50:48 AM 49.3684 -5.0976 88° East 452 520 35,500  Level FlightAware UK
Thu 06:51:06 AM 49.3699 -5.0311 88° East 450 518 35,500  Level FlightAware UK
Thu 06:51:30 AM 49.3717 -4.9423 88° East 448 516 35,500  Level FlightAware UK
Thu 06:51:49 AM 49.3731 -4.8750 88° East 450 518 35,500  Level FlightAware UK
Thu 06:52:07 AM 49.3743 -4.8084 88° East 450 518 35,500  Level FlightAware UK
Thu 06:52:24 AM 49.3754 -4.7425 89° East 452 520 35,500  Level FlightAware UK
Thu 06:52:42 AM 49.3765 -4.6759 89° East 452 520 35,500  Level FlightAware UK
Thu 06:53:01 AM 49.3776 -4.6086 89° East 452 520 35,500  Level FlightAware UK
Thu 06:53:19 AM 49.3786 -4.5419 89° East 452 520 35,500  Level FlightAware UK
Thu 06:53:37 AM 49.3797 -4.4753 88° East 450 518 35,500  Level FlightAware UK
Thu 06:53:55 AM 49.3806 -4.4085 89° East 448 516 35,500  Level FlightAware UK
Thu 06:54:13 AM 49.3815 -4.3418 89° East 448 516 35,500  Level FlightAware UK
Thu 06:54:43 AM 49.3829 -4.2303 89° East 448 516 35,500  Level FlightAware UK
Thu 06:55:01 AM 49.3838 -4.1634 89° East 448 516 35,500  Level FlightAware UK
Thu 06:55:55 AM 49.3862 -3.9623 89° East 450 518 35,500  Level FlightAware UK
Thu 06:56:37 AM 49.3878 -3.8057 89° East 450 518 35,500  Level FlightAware UK
Thu 06:56:55 AM 49.3884 -3.7384 89° East 450 518 35,500  Level FlightAware UK
Thu 06:57:13 AM 49.3889 -3.6710 89° East 452 520 35,500  Level FlightAware UK
Thu 06:57:31 AM 49.3893 -3.6028 89° East 454 522 35,500  Level FlightAware UK
Thu 06:58:01 AM 49.3899 -3.4905 89° East 454 522 35,500  Level FlightAware UK
Thu 06:58:19 AM 49.3904 -3.4231 89° East 454 522 35,500  Level FlightAware UK
Thu 06:58:37 AM 49.3909 -3.3550 89° East 454 522 35,500  Level FlightAware UK
Thu 06:58:55 AM 49.3912 -3.2877 90° East 456 525 35,500  Level FlightAware UK
Thu 06:59:19 AM 49.3916 -3.1980 90° East 454 522 35,500  Level FlightAware UK
Thu 06:59:37 AM 49.3917 -3.1309 90° East 454 522 35,500  Level FlightAware UK
Thu 06:59:55 AM 49.3919 -3.0631 90° East 452 520 35,500  Level FlightAware UK
Thu 07:00:13 AM 49.3918 -2.9961 90° East 450 518 35,500  Level FlightAware UK
Thu 07:00:31 AM 49.3920 -2.9292 90° East 450 518 35,500  Level FlightAware UK
Thu 07:00:55 AM 49.3921 -2.8400 90° East 448 516 35,500  Level FlightAware UK
Thu 07:01:13 AM 49.3919 -2.7723 90° East 448 516 35,500  Level FlightAware UK
Thu 07:01:31 AM 49.3917 -2.7053 90° East 448 516 35,500  Level FlightAware UK
Thu 07:01:49 AM 49.3915 -2.6391 90° East 450 518 35,500  Level FlightAware UK
Thu 07:02:07 AM 49.3912 -2.5714 90° East 450 518 35,500  Level FlightAware UK
Thu 07:02:25 AM 49.3910 -2.5046 90° East 448 516 35,500  Level FlightAware UK
Thu 07:02:56 AM 49.3912 -2.3923 90° East 446 513 35,500  Level FlightAware UK
Thu 07:03:14 AM 49.3910 -2.3255 90° East 446 513 35,500  Level FlightAware UK
Thu 07:03:32 AM 49.3907 -2.2586 90° East 446 513 35,500  Level FlightAware UK
Thu 07:03:50 AM 49.3903 -2.1918 91° East 446 513 35,500  Level FlightAware UK
Thu 07:04:26 AM 49.3895 -2.0570 90° East 448 516 35,500  Level FlightAware UK
Thu 07:04:44 AM 49.3890 -1.9899 91° East 446 513 35,500  Level FlightAware UK
Thu 07:05:02 AM 49.3886 -1.9228 91° East 444 511 35,500  Level FlightAware UK
Thu 07:05:20 AM 49.3883 -1.8556 90° East 444 511 35,500  Level FlightAware UK
Thu 07:05:56 AM 49.3870 -1.7208 91° East 444 511 35,500  Level FlightAware UK
Thu 07:06:14 AM 49.3866 -1.6539 91° East 444 511 35,500  Level FlightAware UK
Thu 07:06:32 AM 49.3860 -1.5868 91° East 444 511 35,500  Level FlightAware UK
Thu 07:06:50 AM 49.3852 -1.5187 91° East 446 513 35,500  Level FlightAware UK
Thu 07:07:08 AM 49.3843 -1.4514 91° East 446 513 35,500  Level FlightAware UK
Thu 07:07:38 AM 49.3829 -1.3390 91° East 448 516 35,500  Level FlightAware UK
Thu 07:07:56 AM 49.3822 -1.2708 91° East 448 516 35,500  Level FlightAware UK
Thu 07:08:26 AM 49.3808 -1.1585 91° East 446 513 35,500  Level FlightAware UK
Thu 07:08:45 AM 49.3798 -1.0904 91° East 446 513 35,500  Level FlightAware UK
Thu 07:09:03 AM 49.3788 -1.0229 91° East 448 516 35,500  Level FlightAware UK
Thu 07:09:27 AM 49.3774 -0.9330 91° East 448 516 35,500 -714 Level FlightAware UK
Thu 07:09:45 AM 49.3763 -0.8657 91° East 442 509 35,000 -2,833 Descending FlightAware UK
Thu 07:10:03 AM 49.3752 -0.7984 91° East 452 520 33,800 -3,667 Descending FlightAware UK
Thu 07:10:21 AM 49.3741 -0.7311 91° East 460 529 32,800 -3,167 Descending FlightAware UK
Thu 07:10:39 AM 49.3726 -0.6633 92° East 460 529 31,900 -3,500 Descending FlightAware UK
Thu 07:10:57 AM 49.3710 -0.5945 92° East 460 529 30,700 -3,250 Descending FlightAware UK
Thu 07:11:27 AM 49.3688 -0.4780 92° East 458 527 29,300 -3,250 Descending FlightAware UK
Thu 07:11:45 AM 49.3677 -0.4094 91° East 462 532 28,100 -3,125 Descending FlightAware UK
Thu 07:12:15 AM 49.3650 -0.2945 92° East 458 527 26,800 -2,000 Descending FlightAware UK
Thu 07:12:51 AM 49.3567 -0.1589 95° East 446 513 25,900 -1,778 Descending FlightAware UK
Thu 07:13:09 AM 49.3562 -0.0917 91° East 444 511 25,200 -2,200 Descending FlightAware UK
Thu 07:13:51 AM 49.3535 0.0626 92° East 434 499 23,700 -2,200 Descending FlightAware UK
Thu 07:14:09 AM 49.3520 0.1259 92° East 428 493 23,000 -2,500 Descending FlightAware UK
Thu 07:14:39 AM 49.3492 0.2302 92° East 418 481 21,700 -2,625 Descending FlightAware UK
Thu 07:14:57 AM 49.3471 0.2935 93° East 416 479 20,900 -2,333 Descending FlightAware UK
Thu 07:15:15 AM 49.3451 0.3553 93° East 412 474 20,300 -2,143 Descending FlightAware UK
Thu 07:15:39 AM 49.3423 0.4367 93° East 404 465 19,400 -2,372 Descending FlightAware UK
Thu 07:15:58 AM 49.3402 0.4979 93° East 400 460 18,600 -2,432 Descending FlightAware UK
Thu 07:16:16 AM 49.3381 0.5580 93° East 396 456 17,900 -2,333 Descending FlightAware UK
Thu 07:16:34 AM 49.3359 0.6184 93° East 394 453 17,200 -2,333 Descending FlightAware UK
Thu 07:16:52 AM 49.3339 0.6768 93° East 392 451 16,500 -2,000 Descending FlightAware UK
Thu 07:17:28 AM 49.3299 0.7928 93° East 390 449 15,400 -1,769 Descending FlightAware UK
Thu 07:18:10 AM 49.3254 0.9204 93° East 374 430 14,200 -2,000 Descending FlightAware UK
Thu 07:18:28 AM 49.3234 0.9746 93° East 374 430 13,400 -2,167 Descending FlightAware UK
Thu 07:18:46 AM 49.3212 1.0289 94° East 370 426 12,900 -2,000 Descending FlightAware UK
Thu 07:19:04 AM 49.3192 1.0818 93° East 366 421 12,200 -2,167 Descending FlightAware UK
Thu 07:19:22 AM 49.3171 1.1343 94° East 362 417 11,600 -2,000 Descending FlightAware UK
Thu 07:19:40 AM 49.3153 1.1865 93° East 356 410 11,000 -1,429 Descending FlightAware UK
Thu 07:20:04 AM 49.3126 1.2542 93° East 352 405 10,600 -625 Descending FlightAware UK
Thu 07:20:28 AM 49.3101 1.3229 93° East 352 405 10,500 -143 Descending FlightAware UK
Thu 07:20:46 AM 49.3079 1.3739 94° East 356 410 10,500  Level FlightAware UK
Thu 07:21:04 AM 49.3059 1.4259 93° East 356 410 10,500  Level FlightAware UK
Thu 07:21:22 AM 49.3037 1.4773 94° East 356 410 10,500  Level FlightAware UK
Thu 07:21:40 AM 49.3016 1.5288 94° East 358 412 10,500  Level FlightAware UK
Thu 07:21:58 AM 49.2996 1.5802 93° East 356 410 10,500  Level FlightAware UK
Thu 07:22:16 AM 49.2976 1.6315 93° East 354 407 10,500  Level FlightAware UK
Thu 07:22:58 AM 49.2921 1.7504 94° East 358 412 10,500 -329 Level FlightAware UK
Thu 07:23:29 AM 49.2887 1.8361 93° East 352 405 10,100 -1,091 Descending FlightAware UK
Thu 07:23:53 AM 49.2860 1.9042 93° East 350 403 9,500 -875 Descending FlightAware UK
Thu 07:24:17 AM 49.2829 1.9716 94° East 346 398 9,400  Descending FlightAware UK
Thu 07:25:29 AM 49.2894 2.1976 87° East 1 1 9,500 83 Climbing FlightAware UK
Thu 07:27:00 AM 49.1372 2.3921 140° Southeast  Level Estimated
Thu 07:34:00 AM 49.0128 2.5500 140° Southeast  Level Estimated
Thu 07:35:00 AM 49.0128 2.5500 180° South  Level Estimated
Thu 07:36:00 AM 49.0128 2.5500 180° South  Level Estimated
Thu 07:37:00 AM 49.0128 2.5500 180° South  Level Estimated
Thu 07:38:00 AM 49.0128 2.5500 180° South  Level Estimated
Thu 07:39:00 AM 49.0128 2.5500 180° South  Level Estimated
Thu 07:40:00 AM 49.0128 2.5500 180° South  Level Estimated
Thu 07:41:00 AM 49.0128 2.5500 180° South  Level Estimated
Thu 07:42:00 AM 49.0128 2.5500 180° South  Level Estimated

Login

Don't have an account? Register now (free) for customized features, flight alerts, and more!